Time;durP1;ratioP1;P1;durP2;ratioP2;P2;SDS_P1;SDS_P2;PMS_P1;PMS_P2;Temp;Humidity;BMP_temperature;BMP_pressure;BME280_temperature;BME280_humidity;BME280_pressure;Samples;Min_cycle;Max_cycle;Signal;HPM_P1;HPM_P2
2023/12/19 00:01:46;;;;;;;;;;;;;;;-140.72;100.00;63709.19;5049482;28;19931;-73
2023/12/19 00:04:11;;;;;;;;;;;;;;;-140.72;100.00;63642.03;5017677;28;19917;-74
2023/12/19 00:06:37;;;;;;;;;;;;;;;-140.72;100.00;63768.19;5062102;28;20392;-74
2023/12/19 00:09:02;;;;;;;;;;;;;;;-140.72;100.00;63751.91;5028465;28;20367;-74
2023/12/19 00:11:27;;;;;;;;;;;;;;;-140.72;100.00;63804.81;5029699;28;19967;-74
2023/12/19 00:13:53;;;;;;;;;;;;;;;-140.72;100.00;63800.75;5026155;28;20286;-74
2023/12/19 00:16:18;;;;;;;;;;;;;;;-140.72;100.00;63786.50;5053494;28;20375;-74
2023/12/19 00:18:43;;;;;;;;;;;;;;;-140.72;100.00;63829.25;5042400;28;19917;-74
2023/12/19 00:21:09;;;;;;;;;;;;;;;-140.72;100.00;63831.28;5042791;28;19952;-75
2023/12/19 00:23:34;;;;;;;;;;;;;;;-140.72;100.00;63869.94;5054718;28;19984;-74
2023/12/19 00:25:59;;;;;;;;;;;;;;;-140.72;100.00;63863.84;5052757;28;19927;-74
2023/12/19 00:28:27;;;;;;;;;;;;;;;-140.72;100.00;63882.16;5054401;28;20258;-74
2023/12/19 00:30:52;;;;;;;;;;;;;;;-140.72;100.00;63845.50;5055254;28;20380;-74
2023/12/19 00:33:17;;;;;;;;;;;;;;;-140.72;100.00;63857.72;5047745;28;19917;-73
2023/12/19 00:35:42;;;;;;;;;;;;;;;-140.72;100.00;63898.44;5047769;28;19917;-73
2023/12/19 00:38:08;;;;;;;;;;;;;;;-140.72;100.00;63910.63;5023060;28;19921;-75
2023/12/19 00:40:33;;;;;;;;;;;;;;;-140.72;100.00;63902.50;5049043;28;19928;-74
2023/12/19 00:42:58;;;;;;;;;;;;;;;-140.72;100.00;63920.81;5025038;28;19978;-74
2023/12/19 00:45:23;;;;;;;;;;;;;;;-140.72;100.00;63896.38;5054511;28;20021;-74
2023/12/19 00:47:49;;;;;;;;;;;;;;;-140.72;100.00;63912.66;5034836;28;19967;-73
2023/12/19 00:50:15;;;;;;;;;;;;;;;-140.72;100.00;63949.31;5052006;28;20010;-74
2023/12/19 00:52:41;;;;;;;;;;;;;;;-140.72;100.00;63973.72;5030371;28;19932;-74
2023/12/19 00:55:06;;;;;;;;;;;;;;;-140.72;100.00;63981.88;5053608;28;19920;-74
2023/12/19 00:57:32;;;;;;;;;;;;;;;-140.72;100.00;63971.69;5034954;28;19938;-74
2023/12/19 00:59:57;;;;;;;;;;;;;;;-140.72;100.00;63979.81;5062346;28;19978;-74
2023/12/19 01:02:23;;;;;;;;;;;;;;;-140.72;100.00;63979.81;5058738;28;20015;-74
2023/12/19 01:04:48;;;;;;;;;;;;;;;-140.72;100.00;63973.72;5040260;28;19960;-74
2023/12/19 01:07:13;;;;;;;;;;;;;;;-140.72;100.00;63983.91;5053074;28;19921;-74
2023/12/19 01:09:39;;;;;;;;;;;;;;;-140.72;100.00;64000.19;5041241;28;20016;-73
2023/12/19 01:12:04;;;;;;;;;;;;;;;-140.72;100.00;63996.09;5054311;28;19924;-73
2023/12/19 01:14:29;;;;;;;;;;;;;;;-140.72;100.00;63985.94;5055964;28;19925;-73
2023/12/19 01:16:54;;;;;;;;;;;;;;;-140.72;100.00;64042.91;5047358;28;20031;-72
2023/12/19 01:19:20;;;;;;;;;;;;;;;-140.72;100.00;64006.28;5035857;28;20361;-74
2023/12/19 01:21:45;;;;;;;;;;;;;;;-140.72;100.00;64061.22;5052961;28;19917;-73
2023/12/19 01:24:10;;;;;;;;;;;;;;;-140.72;100.00;64032.75;5051622;28;20071;-73
2023/12/19 01:26:35;;;;;;;;;;;;;;;-140.72;100.00;64055.13;5062628;28;19927;-73
2023/12/19 01:29:01;;;;;;;;;;;;;;;-140.72;100.00;64051.06;5079197;28;19927;-73
2023/12/19 01:31:26;;;;;;;;;;;;;;;-140.72;100.00;64042.91;5069065;28;19933;-73
2023/12/19 01:33:52;;;;;;;;;;;;;;;-140.72;100.00;64077.50;5050378;28;20386;-73
2023/12/19 01:36:17;;;;;;;;;;;;;;;-140.72;100.00;64081.59;5040113;28;20271;-72
2023/12/19 01:38:42;;;;;;;;;;;;;;;-140.72;100.00;64099.91;5025641;28;19917;-72
2023/12/19 01:41:07;;;;;;;;;;;;;;;-140.72;100.00;64083.63;5055847;28;19940;-72
2023/12/19 01:43:33;;;;;;;;;;;;;;;-140.72;100.00;64112.09;5043200;28;19920;-73
2023/12/19 01:45:58;;;;;;;;;;;;;;;-140.72;100.00;64140.59;5055080;28;19975;-72
2023/12/19 01:48:25;;;;;;;;;;;;;;;-140.72;100.00;64136.53;5041288;28;19932;-72
2023/12/19 01:50:50;;;;;;;;;;;;;;;-140.72;100.00;64095.81;5042829;28;20514;-73
2023/12/19 01:53:16;;;;;;;;;;;;;;;-140.72;100.00;64126.34;5048446;28;20003;-73
2023/12/19 01:55:42;;;;;;;;;;;;;;;-140.72;100.00;64154.84;5047909;28;19996;-73
2023/12/19 01:58:08;;;;;;;;;;;;;;;-140.72;100.00;64110.06;5059201;28;20001;-73
2023/12/19 02:00:34;;;;;;;;;;;;;;;-140.72;100.00;64152.81;5049624;28;19927;-72
2023/12/19 02:03:00;;;;;;;;;;;;;;;-140.72;100.00;64148.75;5065547;28;19917;-73
2023/12/19 02:08:39;;;;;;;;;;;;;;;-140.72;100.00;64230.16;5044097;28;19927;-74
2023/12/19 02:11:04;;;;;;;;;;;;;;;-140.72;100.00;64219.97;5016536;28;19921;-73
2023/12/19 02:13:30;;;;;;;;;;;;;;;-140.72;100.00;64258.63;5060264;28;20298;-73
2023/12/19 02:15:55;;;;;;;;;;;;;;;-140.72;100.00;64285.09;5023762;28;20275;-73
2023/12/19 02:18:21;;;;;;;;;;;;;;;-140.72;100.00;64266.78;5047902;28;20010;-73
2023/12/19 02:20:47;;;;;;;;;;;;;;;-140.72;100.00;64266.78;5053717;28;19952;-73
2023/12/19 02:23:12;;;;;;;;;;;;;;;-140.72;100.00;64217.94;5054079;28;19920;-73
2023/12/19 02:25:38;;;;;;;;;;;;;;;-140.72;100.00;64258.63;5047378;28;19969;-73
2023/12/19 02:28:03;;;;;;;;;;;;;;;-140.72;100.00;64264.75;5039693;28;19917;-72
2023/12/19 02:30:29;;;;;;;;;;;;;;;-140.72;100.00;64248.47;5034161;28;19968;-72
2023/12/19 02:32:55;;;;;;;;;;;;;;;-140.72;100.00;64279.00;5036104;28;20355;-72
2023/12/19 02:35:20;;;;;;;;;;;;;;;-140.72;100.00;64272.88;5043367;28;19968;-72
2023/12/19 02:37:45;;;;;;;;;;;;;;;-140.72;100.00;64254.56;5049544;28;19901;-73
2023/12/19 02:40:12;;;;;;;;;;;;;;;-140.72;100.00;64268.81;5050333;28;19936;-73
2023/12/19 02:42:41;;;;;;;;;;;;;;;-140.72;100.00;64307.47;5048475;28;19921;-73
2023/12/19 02:45:07;;;;;;;;;;;;;;;-140.72;100.00;64256.59;5044699;28;19931;-73
2023/12/19 02:47:35;;;;;;;;;;;;;;;-140.72;100.00;64283.06;5040002;28;19921;-73
2023/12/19 02:50:00;;;;;;;;;;;;;;;-140.72;100.00;64268.81;5046861;28;20340;-73
2023/12/19 02:52:25;;;;;;;;;;;;;;;-140.72;100.00;64254.56;5071123;28;19920;-74
2023/12/19 02:54:50;;;;;;;;;;;;;;;-140.72;100.00;64272.88;5034222;28;20003;-75
2023/12/19 02:57:16;;;;;;;;;;;;;;;-140.72;100.00;64291.19;5047082;28;20333;-74
2023/12/19 02:59:41;;;;;;;;;;;;;;;-140.72;100.00;64279.00;5032596;28;20429;-74
2023/12/19 03:02:06;;;;;;;;;;;;;;;-140.72;100.00;64293.25;5044677;28;19935;-74
2023/12/19 03:04:31;;;;;;;;;;;;;;;-140.72;100.00;64285.09;5031759;28;19933;-74
2023/12/19 03:06:57;;;;;;;;;;;;;;;-140.72;100.00;64297.31;5050457;28;20020;-74
2023/12/19 03:09:22;;;;;;;;;;;;;;;-140.72;100.00;64299.34;5050640;28;19932;-75
2023/12/19 03:12:03;;;;;;;;;;;;;;;-140.72;100.00;64264.75;5036223;28;19925;-74
2023/12/19 03:14:28;;;;;;;;;;;;;;;-140.72;100.00;64276.97;5052794;28;19978;-74
2023/12/19 03:16:53;;;;;;;;;;;;;;;-140.72;100.00;64297.31;5059773;28;19948;-74
2023/12/19 03:19:19;;;;;;;;;;;;;;;-140.72;100.00;64299.34;5038438;28;19985;-74
2023/12/19 03:21:44;;;;;;;;;;;;;;;-140.72;100.00;64313.59;5050061;28;19917;-74
2023/12/19 03:24:09;;;;;;;;;;;;;;;-140.72;100.00;64315.63;5054430;28;20306;-74
2023/12/19 03:26:35;;;;;;;;;;;;;;;-140.72;100.00;64291.19;5037385;28;20243;-73
2023/12/19 03:29:00;;;;;;;;;;;;;;;-140.72;100.00;64311.56;5054658;28;20035;-74
2023/12/19 03:31:25;;;;;;;;;;;;;;;-140.72;100.00;64279.00;5021466;28;20352;-74
2023/12/19 03:33:50;;;;;;;;;;;;;;;-140.72;100.00;64297.31;5057685;28;19917;-74
2023/12/19 03:36:16;;;;;;;;;;;;;;;-140.72;100.00;64311.56;5039000;28;20298;-74
2023/12/19 03:38:41;;;;;;;;;;;;;;;-140.72;100.00;64305.44;5040842;28;20360;-74
2023/12/19 03:41:08;;;;;;;;;;;;;;;-140.72;100.00;64309.53;5037893;28;19918;-73
2023/12/19 03:43:34;;;;;;;;;;;;;;;-140.72;100.00;64303.41;5054538;28;19928;-74
2023/12/19 03:52:11;;;;;;;;;;;;;;;-140.72;100.00;64384.81;5036207;28;20007;-74
2023/12/19 03:54:36;;;;;;;;;;;;;;;-140.72;100.00;64350.22;5055835;28;19924;-74
2023/12/19 03:57:02;;;;;;;;;;;;;;;-140.72;100.00;64331.91;5044200;28;19918;-73
2023/12/19 03:59:27;;;;;;;;;;;;;;;-140.72;100.00;64317.66;5017717;28;19923;-73
2023/12/19 04:01:52;;;;;;;;;;;;;;;-140.72;100.00;64299.34;5052342;28;20275;-73
2023/12/19 04:04:17;;;;;;;;;;;;;;;-140.72;100.00;64311.56;5047677;28;20395;-73
2023/12/19 04:06:43;;;;;;;;;;;;;;;-140.72;100.00;64262.72;5047794;28;19917;-73
2023/12/19 04:09:09;;;;;;;;;;;;;;;-140.72;100.00;64311.56;5064154;28;19958;-74
2023/12/19 04:11:34;;;;;;;;;;;;;;;-140.72;100.00;64325.81;5047259;28;19917;-74
2023/12/19 04:13:59;;;;;;;;;;;;;;;-140.72;100.00;64301.38;5036187;28;19964;-73
2023/12/19 04:16:25;;;;;;;;;;;;;;;-140.72;100.00;64327.84;5042000;28;20362;-73
2023/12/19 04:18:50;;;;;;;;;;;;;;;-140.72;100.00;64307.47;5036600;28;20391;-73
2023/12/19 04:21:15;;;;;;;;;;;;;;;-140.72;100.00;64297.31;5053175;28;19944;-73
2023/12/19 04:23:40;;;;;;;;;;;;;;;-140.72;100.00;64342.09;5056533;28;19920;-74
2023/12/19 04:26:06;;;;;;;;;;;;;;;-140.72;100.00;64348.19;5048813;28;19924;-74
2023/12/19 04:28:31;;;;;;;;;;;;;;;-140.72;100.00;64384.81;5059316;28;19998;-73
2023/12/19 04:30:56;;;;;;;;;;;;;;;-140.72;100.00;64311.56;5041729;28;19921;-74
2023/12/19 04:33:21;;;;;;;;;;;;;;;-140.72;100.00;64327.84;5047527;28;19939;-74
2023/12/19 04:35:46;;;;;;;;;;;;;;;-140.72;100.00;64352.25;5046968;28;19923;-74
2023/12/19 04:38:12;;;;;;;;;;;;;;;-140.72;100.00;64338.00;5018359;28;19970;-74
2023/12/19 04:40:37;;;;;;;;;;;;;;;-140.72;100.00;64364.47;5061535;28;19973;-74
2023/12/19 04:43:03;;;;;;;;;;;;;;;-140.72;100.00;64325.81;5055749;28;19976;-74
2023/12/19 04:45:28;;;;;;;;;;;;;;;-140.72;100.00;64340.03;5049165;28;19924;-74
2023/12/19 04:47:53;;;;;;;;;;;;;;;-140.72;100.00;64350.22;5043329;28;19921;-74
2023/12/19 04:50:18;;;;;;;;;;;;;;;-140.72;100.00;64386.84;5067862;28;19982;-74
2023/12/19 04:52:43;;;;;;;;;;;;;;;-140.72;100.00;64348.19;5048877;28;19994;-74
2023/12/19 04:55:09;;;;;;;;;;;;;;;-140.72;100.00;64364.47;5048610;28;19917;-74
2023/12/19 04:57:34;;;;;;;;;;;;;;;-140.72;100.00;64370.56;5067181;28;20279;-74
2023/12/19 05:00:00;;;;;;;;;;;;;;;-140.72;100.00;64348.19;5053937;28;19925;-73
2023/12/19 05:02:25;;;;;;;;;;;;;;;-140.72;100.00;64338.00;5053939;28;19921;-74
2023/12/19 05:04:50;;;;;;;;;;;;;;;-140.72;100.00;64384.81;5035752;28;19956;-74
2023/12/19 05:07:15;;;;;;;;;;;;;;;-140.72;100.00;64386.84;5056968;28;19956;-74
2023/12/19 05:09:41;;;;;;;;;;;;;;;-140.72;100.00;64388.91;5036591;28;19951;-74
2023/12/19 05:12:06;;;;;;;;;;;;;;;-140.72;100.00;64423.50;5038141;28;19917;-74
2023/12/19 05:14:32;;;;;;;;;;;;;;;-140.72;100.00;64360.41;5040300;28;20382;-73
2023/12/19 05:16:57;;;;;;;;;;;;;;;-140.72;100.00;64392.97;5041870;28;20370;-73
2023/12/19 05:19:22;;;;;;;;;;;;;;;-140.72;100.00;64411.28;5058444;28;19939;-74
2023/12/19 05:21:47;;;;;;;;;;;;;;;-140.72;100.00;64401.09;5030535;28;20432;-73
2023/12/19 05:24:12;;;;;;;;;;;;;;;-140.72;100.00;64441.81;5040470;28;20321;-73
2023/12/19 05:26:38;;;;;;;;;;;;;;;-140.72;100.00;64458.09;5033176;28;20450;-73
2023/12/19 05:29:03;;;;;;;;;;;;;;;-140.72;100.00;64458.09;5046456;28;19986;-73
2023/12/19 05:31:28;;;;;;;;;;;;;;;-140.72;100.00;64421.47;5049124;28;19995;-73
2023/12/19 05:33:54;;;;;;;;;;;;;;;-140.72;100.00;64437.75;5019357;28;19951;-73
2023/12/19 05:36:20;;;;;;;;;;;;;;;-140.72;100.00;64445.88;5034188;28;19956;-73
2023/12/19 05:38:46;;;;;;;;;;;;;;;-140.72;100.00;64425.53;5055550;28;19917;-73
2023/12/19 05:41:14;;;;;;;;;;;;;;;-140.72;100.00;64490.66;5039826;28;19979;-74
2023/12/19 05:43:40;;;;;;;;;;;;;;;-140.72;100.00;64482.50;5036822;28;20020;-74
2023/12/19 05:46:05;;;;;;;;;;;;;;;-140.72;100.00;64492.69;5040415;28;19999;-73
2023/12/19 05:48:30;;;;;;;;;;;;;;;-140.72;100.00;64466.22;5051126;28;19978;-73
2023/12/19 05:50:55;;;;;;;;;;;;;;;-140.72;100.00;64480.47;5034655;28;19921;-74
2023/12/19 05:53:20;;;;;;;;;;;;;;;-140.72;100.00;64480.47;5052936;28;19921;-75
2023/12/19 05:55:46;;;;;;;;;;;;;;;-140.72;100.00;64498.81;5068868;28;20284;-74
2023/12/19 05:58:11;;;;;;;;;;;;;;;-140.72;100.00;64490.66;5055366;28;20430;-75
2023/12/19 06:00:36;;;;;;;;;;;;;;;-140.72;100.00;64464.19;5059617;28;19936;-75
2023/12/19 06:03:01;;;;;;;;;;;;;;;-140.72;100.00;64447.91;5056890;28;19916;-73
2023/12/19 06:05:26;;;;;;;;;;;;;;;-140.72;100.00;64445.88;5052806;28;19999;-73
2023/12/19 06:07:52;;;;;;;;;;;;;;;-140.72;100.00;64429.59;5053660;28;20375;-73
2023/12/19 06:10:17;;;;;;;;;;;;;;;-140.72;100.00;64454.03;5053134;28;19921;-74
2023/12/19 06:12:42;;;;;;;;;;;;;;;-140.72;100.00;64447.91;5062474;28;20023;-74
2023/12/19 06:15:11;;;;;;;;;;;;;;;-140.72;100.00;64441.81;5047778;28;19956;-73
2023/12/19 06:17:38;;;;;;;;;;;;;;;-140.72;100.00;64470.31;5053302;28;20325;-72
2023/12/19 06:20:04;;;;;;;;;;;;;;;-140.72;100.00;64445.88;5042631;28;20377;-73
2023/12/19 06:22:29;;;;;;;;;;;;;;;-140.72;100.00;64445.88;5052890;28;20007;-73
2023/12/19 06:24:54;;;;;;;;;;;;;;;-140.72;100.00;64478.44;5050468;28;19939;-73
2023/12/19 06:27:21;;;;;;;;;;;;;;;-140.72;100.00;64445.88;5025654;28;19929;-74
2023/12/19 06:29:46;;;;;;;;;;;;;;;-140.72;100.00;64472.34;5028569;28;20035;-72
2023/12/19 06:32:11;;;;;;;;;;;;;;;-140.72;100.00;64474.38;5050849;28;19947;-74
2023/12/19 06:34:37;;;;;;;;;;;;;;;-140.72;100.00;64464.19;5034928;28;19921;-73
2023/12/19 06:37:03;;;;;;;;;;;;;;;-140.72;100.00;64439.78;5033919;28;19917;-73
2023/12/19 06:39:28;;;;;;;;;;;;;;;-140.72;100.00;64458.09;5015586;28;20298;-73
2023/12/19 06:41:53;;;;;;;;;;;;;;;-140.72;100.00;64476.41;5022389;28;19921;-73
2023/12/19 06:44:18;;;;;;;;;;;;;;;-140.72;100.00;64488.63;5052010;28;19917;-73
2023/12/19 06:46:46;;;;;;;;;;;;;;;-140.72;100.00;64476.41;5044824;28;19920;-72
2023/12/19 06:49:11;;;;;;;;;;;;;;;-140.72;100.00;64515.09;5022142;28;19917;-73
2023/12/19 06:51:36;;;;;;;;;;;;;;;-140.72;100.00;64482.50;5062590;28;19917;-73
2023/12/19 06:54:02;;;;;;;;;;;;;;;-140.72;100.00;64506.94;5052211;28;19940;-72
2023/12/19 06:56:28;;;;;;;;;;;;;;;-140.72;100.00;64523.22;5040828;28;19933;-73
2023/12/19 06:58:53;;;;;;;;;;;;;;;-140.72;100.00;64496.75;5052898;28;20031;-73
2023/12/19 07:01:18;;;;;;;;;;;;;;;-140.72;100.00;64515.09;5043330;28;20020;-78
2023/12/19 07:03:44;;;;;;;;;;;;;;;-140.72;100.00;64519.16;5025162;28;19917;-74
2023/12/19 07:06:15;;;;;;;;;;;;;;;-140.72;100.00;64527.28;5057954;28;20305;-72
2023/12/19 07:08:40;;;;;;;;;;;;;;;-140.72;100.00;64506.94;5057076;28;20016;-72
2023/12/19 07:11:06;;;;;;;;;;;;;;;-140.72;100.00;64535.44;5069883;28;19974;-72
2023/12/19 07:13:32;;;;;;;;;;;;;;;-140.72;100.00;64580.22;5045384;28;20246;-74
2023/12/19 07:15:58;;;;;;;;;;;;;;;-140.72;100.00;64555.78;5037709;28;19921;-76
2023/12/19 07:18:23;;;;;;;;;;;;;;;-140.72;100.00;64559.84;5051118;28;20338;-73
2023/12/19 07:20:48;;;;;;;;;;;;;;;-140.72;100.00;64600.56;5055296;28;20029;-73
2023/12/19 07:23:13;;;;;;;;;;;;;;;-140.72;100.00;64580.22;5062534;28;19974;-73
2023/12/19 07:25:38;;;;;;;;;;;;;;;-140.72;100.00;64604.63;5044822;28;20012;-72
2023/12/19 07:28:04;;;;;;;;;;;;;;;-140.72;100.00;64600.56;5053746;28;20011;-73
2023/12/19 07:30:29;;;;;;;;;;;;;;;-140.72;100.00;64606.66;5046433;28;19932;-72
2023/12/19 07:32:54;;;;;;;;;;;;;;;-140.72;100.00;64637.19;5053504;28;19921;-72
2023/12/19 07:35:20;;;;;;;;;;;;;;;-140.72;100.00;64657.56;5060565;28;19920;-73
2023/12/19 07:37:45;;;;;;;;;;;;;;;-140.72;100.00;64620.91;5054337;28;19924;-73
2023/12/19 07:40:11;;;;;;;;;;;;;;;-140.72;100.00;64637.19;5040198;28;19917;-74
2023/12/19 07:42:36;;;;;;;;;;;;;;;-140.72;100.00;64657.56;5046714;28;19928;-73
2023/12/19 07:45:03;;;;;;;;;;;;;;;-140.72;100.00;64720.66;5037840;28;19917;-73
2023/12/19 07:47:28;;;;;;;;;;;;;;;-140.72;100.00;64663.66;5036400;28;19921;-72
2023/12/19 07:49:53;;;;;;;;;;;;;;;-140.72;100.00;64702.34;5065142;28;20051;-74
2023/12/19 07:52:18;;;;;;;;;;;;;;;-140.72;100.00;64696.22;5044639;28;19928;-76
2023/12/19 07:54:44;;;;;;;;;;;;;;;-140.72;100.00;64651.44;5031776;28;20435;-73
2023/12/19 07:57:09;;;;;;;;;;;;;;;-140.72;100.00;64696.22;5032536;28;20003;-72
2023/12/19 07:59:35;;;;;;;;;;;;;;;-140.72;100.00;64641.28;5047175;28;19918;-72
2023/12/19 08:02:00;;;;;;;;;;;;;;;-140.72;100.00;64692.16;5048918;28;19960;-73
2023/12/19 08:04:25;;;;;;;;;;;;;;;-140.72;100.00;64675.88;5043497;28;19924;-73
2023/12/19 08:06:50;;;;;;;;;;;;;;;-140.72;100.00;64708.44;5050087;28;19917;-72
2023/12/19 08:09:15;;;;;;;;;;;;;;;-140.72;100.00;64663.66;5040140;28;19924;-73
2023/12/19 08:11:41;;;;;;;;;;;;;;;-140.72;100.00;64726.75;5031239;28;19934;-75
2023/12/19 08:14:07;;;;;;;;;;;;;;;-140.72;100.00;64700.31;5046645;28;19920;-72
2023/12/19 08:16:32;;;;;;;;;;;;;;;-140.72;100.00;64710.47;5023047;28;19982;-72
2023/12/19 08:18:57;;;;;;;;;;;;;;;-140.72;100.00;64720.66;5045036;28;19925;-72
2023/12/19 08:21:23;;;;;;;;;;;;;;;-140.72;100.00;64724.72;5043780;28;20407;-72
2023/12/19 08:23:48;;;;;;;;;;;;;;;-140.72;100.00;64732.88;5048709;28;19982;-73
2023/12/19 08:26:13;;;;;;;;;;;;;;;-140.72;100.00;64698.25;5022643;28;20386;-72
2023/12/19 08:28:39;;;;;;;;;;;;;;;-140.72;100.00;64724.72;5049897;28;20004;-76
2023/12/19 08:31:04;;;;;;;;;;;;;;;-140.72;100.00;64732.88;5040424;28;19987;-72
2023/12/19 08:33:29;;;;;;;;;;;;;;;-140.72;100.00;64720.66;5048058;28;20634;-72
2023/12/19 08:35:55;;;;;;;;;;;;;;;-140.72;100.00;64779.69;5047016;28;19921;-72
2023/12/19 08:38:20;;;;;;;;;;;;;;;-140.72;100.00;64743.03;5030630;28;19920;-72
2023/12/19 08:40:45;;;;;;;;;;;;;;;-140.72;100.00;64775.63;5043333;28;19936;-72
2023/12/19 08:43:11;;;;;;;;;;;;;;;-140.72;100.00;64722.69;5045071;28;19928;-72
2023/12/19 08:45:36;;;;;;;;;;;;;;;-140.72;100.00;64755.25;5050060;28;19924;-72
2023/12/19 08:48:03;;;;;;;;;;;;;;;-140.72;100.00;64769.50;5056054;28;19921;-72
2023/12/19 08:50:28;;;;;;;;;;;;;;;-140.72;100.00;64767.47;5043275;28;19929;-72
2023/12/19 08:52:54;;;;;;;;;;;;;;;-140.72;100.00;64765.44;5060862;28;19921;-74
2023/12/19 08:55:20;;;;;;;;;;;;;;;-140.72;100.00;64761.38;5053991;28;20493;-72
2023/12/19 08:57:45;;;;;;;;;;;;;;;-140.72;100.00;64738.97;5032330;28;19924;-72
2023/12/19 09:00:19;;;;;;;;;;;;;;;-140.72;100.00;64743.03;5060223;28;19917;-75
2023/12/19 09:02:45;;;;;;;;;;;;;;;-140.72;100.00;64757.28;5054748;28;19921;-74
2023/12/19 09:05:11;;;;;;;;;;;;;;;-140.72;100.00;64763.41;5041139;28;19921;-72
2023/12/19 09:07:36;;;;;;;;;;;;;;;-140.72;100.00;64738.97;5045057;28;19935;-73
2023/12/19 09:10:02;;;;;;;;;;;;;;;-140.72;100.00;64745.09;5030358;28;19920;-73
2023/12/19 09:12:27;;;;;;;;;;;;;;;-140.72;100.00;64738.97;5021114;28;20012;-73
2023/12/19 09:14:52;;;;;;;;;;;;;;;-140.72;100.00;64726.75;5043272;28;19920;-75
2023/12/19 09:17:17;;;;;;;;;;;;;;;-140.72;100.00;64736.94;5050375;28;19928;-74
2023/12/19 09:19:43;;;;;;;;;;;;;;;-140.72;100.00;64718.63;5057042;28;19929;-74
2023/12/19 09:22:08;;;;;;;;;;;;;;;-140.72;100.00;64745.09;5025863;28;19916;-73
2023/12/19 09:24:33;;;;;;;;;;;;;;;-140.72;100.00;64700.31;5025038;28;20502;-73
2023/12/19 09:26:58;;;;;;;;;;;;;;;-140.72;100.00;64681.97;5018325;28;19944;-72
2023/12/19 09:29:25;;;;;;;;;;;;;;;-140.72;100.00;64730.84;5051125;28;19917;-73
2023/12/19 09:31:51;;;;;;;;;;;;;;;-140.72;100.00;64710.47;5036424;28;19939;-73
2023/12/19 09:34:16;;;;;;;;;;;;;;;-140.72;100.00;64700.31;5052101;28;19917;-74
2023/12/19 09:36:42;;;;;;;;;;;;;;;-140.72;100.00;64728.78;5041181;28;19960;-80
2023/12/19 09:39:07;;;;;;;;;;;;;;;-140.72;100.00;64679.94;5039461;28;19931;-71
2023/12/19 09:41:32;;;;;;;;;;;;;;;-140.72;100.00;64704.38;5061443;28;20329;-74
2023/12/19 09:43:57;;;;;;;;;;;;;;;-140.72;100.00;64730.84;5054508;28;19916;-74
2023/12/19 09:46:24;;;;;;;;;;;;;;;-140.72;100.00;64702.34;5034055;28;20470;-74
2023/12/19 09:48:49;;;;;;;;;;;;;;;-140.72;100.00;64706.41;5061840;28;19920;-74
2023/12/19 09:51:21;;;;;;;;;;;;;;;-140.72;100.00;64690.13;5059984;28;19920;-74
2023/12/19 09:53:48;;;;;;;;;;;;;;;-140.72;100.00;64698.25;5055918;28;20277;-74
2023/12/19 09:56:15;;;;;;;;;;;;;;;-140.72;100.00;64704.38;5041694;28;19917;-74
2023/12/19 09:58:42;;;;;;;;;;;;;;;-140.72;100.00;64673.84;5022592;28;19917;-75
2023/12/19 10:01:07;;;;;;;;;;;;;;;-140.72;100.00;64669.78;5052546;28;19920;-75
2023/12/19 10:03:33;;;;;;;;;;;;;;;-140.72;100.00;64629.06;5031361;28;19921;-78
2023/12/19 10:05:58;;;;;;;;;;;;;;;-140.72;100.00;64681.97;5039347;28;19944;-74
2023/12/19 10:08:23;;;;;;;;;;;;;;;-140.72;100.00;64651.44;5044773;28;19928;-72
2023/12/19 10:10:53;;;;;;;;;;;;;;;-140.72;100.00;64681.97;5058487;28;20002;-72
2023/12/19 10:13:29;;;;;;;;;;;;;;;-140.72;100.00;64724.72;5049853;28;20042;-72
2023/12/19 10:16:01;;;;;;;;;;;;;;;-140.72;100.00;64710.47;5050128;28;20327;-73
2023/12/19 10:18:26;;;;;;;;;;;;;;;-140.72;100.00;64659.59;5039532;28;20385;-73
2023/12/19 10:21:10;;;;;;;;;;;;;;;-140.72;100.00;64635.16;5050002;28;19927;-73
2023/12/19 10:23:36;;;;;;;;;;;;;;;-140.72;100.00;64679.94;5032007;28;20066;-72
2023/12/19 10:26:01;;;;;;;;;;;;;;;-140.72;100.00;64627.03;5026907;28;19921;-73
2023/12/19 10:28:26;;;;;;;;;;;;;;;-140.72;100.00;64608.72;5036272;28;19928;-72
2023/12/19 10:31:12;;;;;;;;;;;;;;;-140.72;100.00;64578.19;5047195;28;19922;-72
2023/12/19 10:33:49;;;;;;;;;;;;;;;-140.72;100.00;64620.91;5053626;28;20000;-72
2023/12/19 10:36:24;;;;;;;;;;;;;;;-140.72;100.00;64627.03;5032280;28;19967;-72
2023/12/19 10:38:50;;;;;;;;;;;;;;;-140.72;100.00;64608.72;5038225;28;19990;-72
2023/12/19 10:41:19;;;;;;;;;;;;;;;-140.72;100.00;64561.91;5052483;28;19924;-72
2023/12/19 10:43:44;;;;;;;;;;;;;;;-140.72;100.00;64580.22;5055906;28;20341;-72
2023/12/19 10:46:10;;;;;;;;;;;;;;;-140.72;100.00;64519.16;5027020;28;19924;-72
2023/12/19 10:48:36;;;;;;;;;;;;;;;-140.72;100.00;64527.28;5047863;28;20031;-72
2023/12/19 10:51:03;;;;;;;;;;;;;;;-140.72;100.00;64541.53;5042089;28;19920;-72
2023/12/19 10:53:29;;;;;;;;;;;;;;;-140.72;100.00;64508.97;5060784;28;20003;-72
2023/12/19 10:55:58;;;;;;;;;;;;;;;-140.72;100.00;64494.72;5069698;28;19948;-72
2023/12/19 10:58:24;;;;;;;;;;;;;;;-140.72;100.00;64492.69;5059557;28;20382;-72
2023/12/19 11:00:50;;;;;;;;;;;;;;;-140.72;100.00;64478.44;5040003;28;20031;-74
2023/12/19 11:06:20;;;;;;;;;;;;;;;-140.72;100.00;64504.91;5039610;28;20290;-73
2023/12/19 11:08:47;;;;;;;;;;;;;;;-140.72;100.00;64441.81;5044474;28;20287;-72
2023/12/19 11:11:23;;;;;;;;;;;;;;;-140.72;100.00;64490.66;5049057;28;19921;-72
2023/12/19 11:13:49;;;;;;;;;;;;;;;-140.72;100.00;64449.94;5047028;28;19921;-73
2023/12/19 11:16:26;;;;;;;;;;;;;;;-140.72;100.00;64454.03;5031158;28;20007;-73
2023/12/19 11:19:08;;;;;;;;;;;;;;;-140.72;100.00;64390.94;5053520;28;19917;-75
2023/12/19 11:21:51;;;;;;;;;;;;;;;-140.72;100.00;64454.03;5043240;28;19921;-72
2023/12/19 11:24:34;;;;;;;;;;;;;;;-140.72;100.00;64502.88;5055680;28;20335;-72
2023/12/19 11:27:00;;;;;;;;;;;;;;;-140.72;100.00;64437.75;5043333;28;19924;-72
2023/12/19 11:29:44;;;;;;;;;;;;;;;-140.72;100.00;64439.78;5065552;28;19927;-73
2023/12/19 11:32:31;;;;;;;;;;;;;;;-140.72;100.00;64452.00;5054539;28;19925;-72
2023/12/19 11:35:06;;;;;;;;;;;;;;;-140.72;100.00;64421.47;5060409;28;19932;-73
2023/12/19 11:37:32;;;;;;;;;;;;;;;-140.72;100.00;64472.34;5056518;28;19920;-72
2023/12/19 11:39:57;;;;;;;;;;;;;;;-140.72;100.00;64429.59;5041783;28;20338;-72
2023/12/19 11:42:37;;;;;;;;;;;;;;;-140.72;100.00;64447.91;5043170;28;19925;-72
2023/12/19 11:45:14;;;;;;;;;;;;;;;-140.72;100.00;64439.78;5049334;28;19920;-73
2023/12/19 11:47:40;;;;;;;;;;;;;;;-140.72;100.00;64403.13;5064743;28;19925;-72
2023/12/19 11:50:05;;;;;;;;;;;;;;;-140.72;100.00;64360.41;5032347;28;19966;-72
2023/12/19 11:52:37;;;;;;;;;;;;;;;-140.72;100.00;64344.13;5041068;28;20008;-73
2023/12/19 11:55:06;;;;;;;;;;;;;;;-140.72;100.00;64382.78;5059590;28;19955;-73
2023/12/19 11:57:31;;;;;;;;;;;;;;;-140.72;100.00;64362.44;5054165;28;19998;-73
2023/12/19 11:59:57;;;;;;;;;;;;;;;-140.72;100.00;64348.19;5066882;28;19920;-73
2023/12/19 12:02:49;;;;;;;;;;;;;;;-140.72;100.00;64321.72;5056213;28;19920;-73
2023/12/19 12:05:17;;;;;;;;;;;;;;;-140.72;100.00;64390.94;5055917;28;20358;-73
2023/12/19 12:07:51;;;;;;;;;;;;;;;-140.72;100.00;64380.75;5039993;28;20400;-73
2023/12/19 12:10:19;;;;;;;;;;;;;;;-140.72;100.00;64362.44;5063057;28;20290;-72
2023/12/19 12:12:44;;;;;;;;;;;;;;;-140.72;100.00;64395.00;5055783;28;19921;-77
2023/12/19 12:15:14;;;;;;;;;;;;;;;-140.72;100.00;64313.59;5023400;28;20397;-76
2023/12/19 12:17:39;;;;;;;;;;;;;;;-140.72;100.00;64354.28;5050096;28;19927;-77
2023/12/19 12:20:06;;;;;;;;;;;;;;;-140.72;100.00;64340.03;5046291;28;21350;-76
2023/12/19 12:22:32;;;;;;;;;;;;;;;-140.72;100.00;64364.47;5040348;28;20381;-73
2023/12/19 12:24:57;;;;;;;;;;;;;;;-140.72;100.00;64372.63;5030544;28;19928;-73
2023/12/19 12:27:25;;;;;;;;;;;;;;;-140.72;100.00;64360.41;5053673;28;19917;-72